Terminal Aerodrome Forecast
Issued by NWS

Home | Current Version | Previous Version | Text Only | Print | Product List | Glossary On
Versions: 1 2 3 4 5 6 7 8 9 10 11 12 13 14 15 16 17 18
000
FTUS41 KOKX 281700
TAFSWF
TAF
KSWF 281728Z 2818/0124 00000KT P6SM FEW250
     FM010800 00000KT P6SM BKN120
     FM011100 00000KT P6SM OVC060
     FM011400 22004KT 2SM -SN SCT015 OVC025
     FM011900 22007KT 1SM -SN OVC015
      AMD NOT SKED=

USA.gov is the U.S. government's official web portal to all federal, state and local government web resources and services.